APL New Jersey — A8NM6 — position and weather

sailwx.info

Track history (hours):
 
Tides and Currents Weather Stations Pressure Air Temp Water Temp Dewpoint Dewpoint Depression Visibility Wind Speed Wind Dir Waves Ship Positions

APL New Jersey

Last reported at 2016-Jun-20 19:30 UTC. Time now 2016-Jun-27 00:34 UTC.
Position N 29°49' E 122°49'.

Length 293 m; draft 11 m.

Type: Cargo ship. MMSI: 636013522.

Date/timePositionNaut miles runAvg speedWind from/ knotsBaromVisibWave heightAir tempDewpointWater temp
2016-Jun-20 19:30N 29°49' E 122°49'2020.9
2016-Jun-20 18:33N 29°44' E 122°27'1414.0
2016-Jun-20 17:33N 29°50' E 122°13'1313.0
2016-Jun-20 16:33N 29°57' E 121°60'7 1.0
2016-Jun-20 10:05N 29°56' E 121°52'0 0.0
2016-Jun-20 06:17N 29°56' E 121°52'0 0.0
2016-Jun-19 21:29N 29°56' E 121°52'0 0.0
2016-Jun-19 20:29N 29°56' E 121°52'0 0.0
2016-Jun-19 19:05N 29°56' E 121°52'0 0.0
2016-Jun-19 17:30N 29°56' E 121°52'2 1.8
2016-Jun-19 16:32N 29°57' E 121°54'1 0.3
2016-Jun-19 13:33N 29°57' E 121°53'5 5.4
2016-Jun-19 12:33N 29°58' E 121°59'1211.8
2016-Jun-19 11:33N 29°53' E 122°11'1110.6
2016-Jun-19 10:33N 29°45' E 122°19'7 2.2
2016-Jun-19 07:30N 29°44' E 122°27'0 0.1
2016-Jun-19 04:30N 29°44' E 122°27'0 0.1
2016-Jun-19 00:06N 29°44' E 122°27'0 0.1
2016-Jun-18 21:18N 29°44' E 122°27'0 0.1
2016-Jun-18 20:06N 29°44' E 122°27'0 0.1
2016-Jun-18 17:30N 29°44' E 122°27'0 0.1
2016-Jun-18 16:30N 29°44' E 122°27'2 2.5
2016-Jun-18 15:33N 29°43' E 122°29'1110.0
2016-Jun-18 14:28N 29°46' E 122°41'1212.1
2016-Jun-18 13:27N 29°56' E 122°50'3611.8
2016-Jun-18 10:26N 30°30' E 123°01'1212.9
2016-Jun-18 09:32N 30°41' E 122°56'6512.9
2016-Jun-18 04:30N 31°16' E 121°52'1213.2
2016-Jun-18 03:33N 31°21' E 121°39'4 4.1
2016-Jun-18 02:31N 31°23' E 121°34'0 0.0
2016-Jun-17 23:31N 31°23' E 121°34'0 0.0
2016-Jun-17 20:19N 31°23' E 121°34'0 0.0
2016-Jun-17 18:07N 31°23' E 121°34'0 0.0
2016-Jun-17 17:31N 31°23' E 121°34'0 0.0
2016-Jun-17 16:31N 31°23' E 121°34'0 0.0
2016-Jun-17 14:31N 31°23' E 121°34'0 0.0
2016-Jun-17 13:25N 31°23' E 121°34'0 0.0
2016-Jun-17 10:31N 31°23' E 121°34'0 0.1
2016-Jun-17 09:31N 31°23' E 121°34'0 0.0
2016-Jun-17 08:31N 31°23' E 121°34'0 0.0
2016-Jun-17 07:31N 31°23' E 121°34'0 0.0
2016-Jun-17 06:25N 31°23' E 121°34'0 0.0
2016-Jun-17 05:31N 31°23' E 121°34'0 0.0
2016-Jun-17 04:25N 31°23' E 121°34'0 0.0
2016-Jun-17 02:31N 31°23' E 121°34'0 0.3
2016-Jun-17 01:33N 31°23' E 121°34'3 3.1
2016-Jun-17 00:33N 31°22' E 121°38'1010.3
2016-Jun-16 23:33N 31°17' E 121°49'1010.0
2016-Jun-16 22:33N 31°15' E 121°60'1212.0
2016-Jun-16 21:33N 31°10' E 122°13'1312.1
2016-Jun-16 20:29N 31°07' E 122°28'1011.0
2016-Jun-16 19:34N 31°07' E 122°39'  
Track history (hours):
 
Tides and Currents Weather Stations Pressure Air Temp Water Temp Dewpoint Dewpoint Depression Visibility Wind Speed Wind Dir Waves Ship Positions

APL New Jersey

Last reported at 2016-Jun-20 19:30 UTC. Time now 2016-Jun-27 00:34 UTC.
Position N 29°49' E 122°49'.

Length 293 m; draft 11 m.

Type: Cargo ship. MMSI: 636013522.

Date/timePositionNaut miles runAvg speedWind from/ knotsBaromVisibWave heightAir tempDewpointWater temp
2016-Jun-20 19:30N 29°49' E 122°49'2020.9
2016-Jun-20 18:33N 29°44' E 122°27'1414.0
2016-Jun-20 17:33N 29°50' E 122°13'1313.0
2016-Jun-20 16:33N 29°57' E 121°60'7 1.0
2016-Jun-20 10:05N 29°56' E 121°52'0 0.0
2016-Jun-20 06:17N 29°56' E 121°52'0 0.0
2016-Jun-19 21:29N 29°56' E 121°52'0 0.0
2016-Jun-19 20:29N 29°56' E 121°52'0 0.0
2016-Jun-19 19:05N 29°56' E 121°52'0 0.0
2016-Jun-19 17:30N 29°56' E 121°52'2 1.8
2016-Jun-19 16:32N 29°57' E 121°54'1 0.3
2016-Jun-19 13:33N 29°57' E 121°53'5 5.4
2016-Jun-19 12:33N 29°58' E 121°59'1211.8
2016-Jun-19 11:33N 29°53' E 122°11'1110.6
2016-Jun-19 10:33N 29°45' E 122°19'7 2.2
2016-Jun-19 07:30N 29°44' E 122°27'0 0.1
2016-Jun-19 04:30N 29°44' E 122°27'0 0.1
2016-Jun-19 00:06N 29°44' E 122°27'0 0.1
2016-Jun-18 21:18N 29°44' E 122°27'0 0.1
2016-Jun-18 20:06N 29°44' E 122°27'0 0.1
2016-Jun-18 17:30N 29°44' E 122°27'0 0.1
2016-Jun-18 16:30N 29°44' E 122°27'2 2.5
2016-Jun-18 15:33N 29°43' E 122°29'1110.0
2016-Jun-18 14:28N 29°46' E 122°41'1212.1
2016-Jun-18 13:27N 29°56' E 122°50'3611.8
2016-Jun-18 10:26N 30°30' E 123°01'1212.9
2016-Jun-18 09:32N 30°41' E 122°56'6512.9
2016-Jun-18 04:30N 31°16' E 121°52'1213.2
2016-Jun-18 03:33N 31°21' E 121°39'4 4.1
2016-Jun-18 02:31N 31°23' E 121°34'0 0.0
2016-Jun-17 23:31N 31°23' E 121°34'0 0.0
2016-Jun-17 20:19N 31°23' E 121°34'0 0.0
2016-Jun-17 18:07N 31°23' E 121°34'0 0.0
2016-Jun-17 17:31N 31°23' E 121°34'0 0.0
2016-Jun-17 16:31N 31°23' E 121°34'0 0.0
2016-Jun-17 14:31N 31°23' E 121°34'0 0.0
2016-Jun-17 13:25N 31°23' E 121°34'0 0.0
2016-Jun-17 10:31N 31°23' E 121°34'0 0.1
2016-Jun-17 09:31N 31°23' E 121°34'0 0.0
2016-Jun-17 08:31N 31°23' E 121°34'0 0.0
2016-Jun-17 07:31N 31°23' E 121°34'0 0.0
2016-Jun-17 06:25N 31°23' E 121°34'0 0.0
2016-Jun-17 05:31N 31°23' E 121°34'0 0.0
2016-Jun-17 04:25N 31°23' E 121°34'0 0.0
2016-Jun-17 02:31N 31°23' E 121°34'0 0.3
2016-Jun-17 01:33N 31°23' E 121°34'3 3.1
2016-Jun-17 00:33N 31°22' E 121°38'1010.3
2016-Jun-16 23:33N 31°17' E 121°49'1010.0
2016-Jun-16 22:33N 31°15' E 121°60'1212.0
2016-Jun-16 21:33N 31°10' E 122°13'1312.1
2016-Jun-16 20:29N 31°07' E 122°28'1011.0
2016-Jun-16 19:34N 31°07' E 122°39'  

Dump ship's entire track history